createdAt,value
2023-04-18T00:00:05.174Z,51.212059
2023-04-18T00:01:04.085Z,51.212013
2023-04-18T00:02:04.190Z,51.212067
2023-04-18T00:03:04.859Z,51.212009
2023-04-18T00:04:05.473Z,51.211990
2023-04-18T00:05:04.157Z,51.212006
2023-04-18T00:06:04.168Z,51.212063
2023-04-18T00:07:04.078Z,51.212036
2023-04-18T00:08:04.192Z,51.212040
2023-04-18T00:09:04.700Z,51.212009
2023-04-18T00:10:04.393Z,51.212036
2023-04-18T00:11:04.014Z,51.212132
2023-04-18T00:12:04.008Z,51.212116
2023-04-18T00:13:04.019Z,51.212151
2023-04-18T00:14:04.761Z,51.212124
2023-04-18T00:15:04.016Z,51.212097
2023-04-18T00:16:04.309Z,51.212040
2023-04-18T00:17:03.999Z,51.212074
2023-04-18T00:18:04.315Z,51.212132
2023-04-18T00:19:03.976Z,51.212059
2023-04-18T00:20:04.015Z,51.212097
2023-04-18T00:21:03.937Z,51.212135
2023-04-18T00:22:04.115Z,51.211948
2023-04-18T00:23:03.975Z,51.212051
2023-04-18T00:24:03.932Z,51.212269
2023-04-18T00:25:03.969Z,51.212135
2023-04-18T00:26:03.947Z,51.212101
2023-04-18T00:27:03.922Z,51.212097
2023-04-18T00:28:03.953Z,51.212158
2023-04-18T00:29:03.924Z,51.212105
2023-04-18T00:30:03.914Z,51.212105
2023-04-18T00:31:03.944Z,51.212051
2023-04-18T00:32:03.923Z,51.211960
2023-04-18T00:33:03.945Z,51.211952
2023-04-18T00:34:03.884Z,51.211903
2023-04-18T00:35:03.864Z,51.211891
2023-04-18T00:36:03.942Z,51.211990
2023-04-18T00:37:03.913Z,51.211994
2023-04-18T00:38:03.858Z,51.211990
2023-04-18T00:39:03.822Z,51.211929
2023-04-18T00:40:03.847Z,51.211914
2023-04-18T00:41:36.421Z,51.212048
2023-04-18T00:42:04.157Z,51.212036
2023-04-18T00:43:36.351Z,51.212025
2023-04-18T00:44:36.366Z,51.212017
2023-04-18T00:45:03.917Z,51.211975
2023-04-18T00:46:37.426Z,51.211948
2023-04-18T00:47:37.463Z,51.211910
2023-04-18T00:48:36.753Z,51.212070
2023-04-18T00:49:36.288Z,51.212105
2023-04-18T00:50:04.001Z,51.212101
2023-04-18T00:51:03.796Z,51.212051
2023-04-18T00:52:03.748Z,51.212021
2023-04-18T00:53:03.802Z,51.212185
2023-04-18T00:54:03.798Z,51.212212
2023-04-18T00:55:03.820Z,51.212284
2023-04-18T00:56:03.828Z,51.212273
2023-04-18T00:57:03.777Z,51.212170
2023-04-18T00:58:03.731Z,51.212185
2023-04-18T00:59:03.725Z,51.212166
2023-04-18T01:00:03.704Z,51.212196
2023-04-18T01:01:03.755Z,51.212208
2023-04-18T01:02:03.860Z,51.212063
2023-04-18T01:03:03.908Z,51.212124
2023-04-18T01:04:03.761Z,51.212112
2023-04-18T01:05:04.713Z,51.212048
2023-04-18T01:06:03.682Z,51.212025
2023-04-18T01:07:03.682Z,51.212002
2023-04-18T01:08:03.710Z,51.211933
2023-04-18T01:09:03.658Z,51.211956
2023-04-18T01:10:03.671Z,51.212025
2023-04-18T01:11:03.666Z,51.212162
2023-04-18T01:12:03.616Z,51.212109
2023-04-18T01:13:03.601Z,51.212090
2023-04-18T01:14:03.666Z,51.212158
2023-04-18T01:15:03.610Z,51.212196
2023-04-18T01:16:03.685Z,51.212112
2023-04-18T01:17:03.604Z,51.212101
2023-04-18T01:18:03.698Z,51.212128
2023-04-18T01:19:03.616Z,51.212234
2023-04-18T01:20:03.874Z,51.212139
2023-04-18T01:21:03.557Z,51.212090
2023-04-18T01:22:03.593Z,51.212112
2023-04-18T01:23:03.549Z,51.212139
2023-04-18T01:24:03.561Z,51.212162
2023-04-18T01:25:03.555Z,51.212067
2023-04-18T01:26:03.563Z,51.212002
2023-04-18T01:27:03.524Z,51.212116
2023-04-18T01:28:03.535Z,51.212170
2023-04-18T01:29:03.532Z,51.212246
2023-04-18T01:30:03.497Z,51.212132
2023-04-18T01:31:03.590Z,51.212070
2023-04-18T01:32:03.542Z,51.212223
2023-04-18T01:33:03.561Z,51.212082
2023-04-18T01:34:03.507Z,51.212196
2023-04-18T01:35:03.503Z,51.212158
2023-04-18T01:36:03.511Z,51.212181
2023-04-18T01:37:03.478Z,51.212246
2023-04-18T01:38:03.510Z,51.212105
2023-04-18T01:39:03.522Z,51.211967
2023-04-18T01:40:03.453Z,51.212143
2023-04-18T01:41:03.477Z,51.212086
2023-04-18T01:42:03.492Z,51.212151
2023-04-18T01:43:03.456Z,51.211945
2023-04-18T01:44:03.433Z,51.211956
2023-04-18T01:45:03.445Z,51.212051
2023-04-18T01:46:03.528Z,51.212135
2023-04-18T01:47:03.455Z,51.212055
2023-04-18T01:48:03.455Z,51.212132
2023-04-18T01:49:03.454Z,51.212109
2023-04-18T01:50:03.407Z,51.212078
2023-04-18T01:51:03.401Z,51.211941
2023-04-18T01:52:04.363Z,51.211933
2023-04-18T01:53:03.376Z,51.211899
2023-04-18T01:54:03.367Z,51.211994
2023-04-18T01:55:03.345Z,51.211948
2023-04-18T01:56:03.394Z,51.211914
2023-04-18T01:57:03.359Z,51.211895
2023-04-18T01:58:03.351Z,51.211849
2023-04-18T01:59:03.365Z,51.211628
2023-04-18T02:00:03.353Z,51.211811
2023-04-18T02:01:04.331Z,51.212032
2023-04-18T02:02:03.466Z,51.212162
2023-04-18T02:03:03.398Z,51.212223
2023-04-18T02:04:03.546Z,51.212074
2023-04-18T02:05:03.299Z,51.212032
2023-04-18T02:06:03.291Z,51.211895
2023-04-18T02:07:03.324Z,51.211975
2023-04-18T02:08:03.277Z,51.211811
2023-04-18T02:09:03.297Z,51.211868
2023-04-18T02:10:03.304Z,51.211838
2023-04-18T02:11:03.253Z,51.212055
2023-04-18T02:12:03.284Z,51.211979
2023-04-18T02:13:03.265Z,51.212078
2023-04-18T02:14:03.263Z,51.212086
2023-04-18T02:15:03.278Z,51.212093
2023-04-18T02:16:03.361Z,51.212063
2023-04-18T02:17:03.215Z,51.211979
2023-04-18T02:18:03.264Z,51.212078
2023-04-18T02:19:03.267Z,51.212093
2023-04-18T02:20:03.206Z,51.212017
2023-04-18T02:21:03.196Z,51.212162
2023-04-18T02:22:03.267Z,51.211952
2023-04-18T02:23:03.209Z,51.211941
2023-04-18T02:24:03.222Z,51.211845
2023-04-18T02:25:03.163Z,51.211849
2023-04-18T02:26:03.145Z,51.211956
2023-04-18T02:27:03.179Z,51.211903
2023-04-18T02:28:03.168Z,51.211960
2023-04-18T02:29:03.219Z,51.211948
2023-04-18T02:30:03.164Z,51.212048
2023-04-18T02:31:03.124Z,51.212139
2023-04-18T02:32:03.231Z,51.212215
2023-04-18T02:33:03.142Z,51.212097
2023-04-18T02:34:03.139Z,51.211926
2023-04-18T02:35:03.111Z,51.212013
2023-04-18T02:36:03.099Z,51.212017
2023-04-18T02:37:03.130Z,51.211983
2023-04-18T02:38:03.143Z,51.211948
2023-04-18T02:39:03.068Z,51.211975
2023-04-18T02:40:03.083Z,51.211994
2023-04-18T02:41:03.062Z,51.211929
2023-04-18T02:42:03.101Z,51.211933
2023-04-18T02:43:03.043Z,51.211998
2023-04-18T02:44:03.050Z,51.211948
2023-04-18T02:45:03.034Z,51.211960
2023-04-18T02:46:03.099Z,51.211975
2023-04-18T02:47:03.023Z,51.211937
2023-04-18T02:48:03.033Z,51.211895
2023-04-18T02:49:03.017Z,51.211678
2023-04-18T02:50:02.999Z,51.211765
2023-04-18T02:51:03.025Z,51.211983
2023-04-18T02:52:03.020Z,51.212097
2023-04-18T02:53:03.031Z,51.211926
2023-04-18T02:54:03.007Z,51.211761
2023-04-18T02:55:02.996Z,51.211742
2023-04-18T02:56:02.966Z,51.211861
2023-04-18T02:57:02.964Z,51.211941
2023-04-18T02:58:02.948Z,51.212021
2023-04-18T02:59:02.970Z,51.212029
2023-04-18T03:00:02.981Z,51.211700
2023-04-18T03:01:02.973Z,51.211765
2023-04-18T03:02:02.917Z,51.211601
2023-04-18T03:03:03.013Z,51.211670
2023-04-18T03:04:02.924Z,51.212109
2023-04-18T03:05:02.984Z,51.212158
2023-04-18T03:06:02.878Z,51.212181
2023-04-18T03:07:02.882Z,51.212139
2023-04-18T03:08:02.908Z,51.212154
2023-04-18T03:09:02.881Z,51.212200
2023-04-18T03:10:02.966Z,51.212158
2023-04-18T03:11:02.869Z,51.212158
2023-04-18T03:12:02.841Z,51.212078
2023-04-18T03:13:02.863Z,51.212162
2023-04-18T03:14:02.849Z,51.212177
2023-04-18T03:15:02.859Z,51.212208
2023-04-18T03:16:02.895Z,51.212112
2023-04-18T03:17:02.852Z,51.212120
2023-04-18T03:18:02.937Z,51.212112
2023-04-18T03:19:02.787Z,51.212120
2023-04-18T03:20:02.788Z,51.212078
2023-04-18T03:21:03.739Z,51.212074
2023-04-18T03:22:02.774Z,51.212120
2023-04-18T03:23:02.849Z,51.212132
2023-04-18T03:24:02.778Z,51.212109
2023-04-18T03:25:02.771Z,51.212112
2023-04-18T03:26:02.768Z,51.212070
2023-04-18T03:27:02.777Z,51.211994
2023-04-18T03:28:02.752Z,51.212013
2023-04-18T03:29:02.760Z,51.212055
2023-04-18T03:30:02.736Z,51.212147
2023-04-18T03:31:02.742Z,51.212128
2023-04-18T03:32:02.769Z,51.212177
2023-04-18T03:33:03.771Z,51.212223
2023-04-18T03:34:02.700Z,51.212208
2023-04-18T03:35:02.721Z,51.212158
2023-04-18T03:36:02.691Z,51.212051
2023-04-18T03:37:02.731Z,51.212040
2023-04-18T03:38:02.692Z,51.211967
2023-04-18T03:39:02.726Z,51.212006
2023-04-18T03:40:02.672Z,51.212086
2023-04-18T03:41:02.659Z,51.212074
2023-04-18T03:42:02.668Z,51.212120
2023-04-18T03:43:02.734Z,51.212067
2023-04-18T03:44:02.744Z,51.212143
2023-04-18T03:45:02.646Z,51.212196
2023-04-18T03:46:02.671Z,51.212097
2023-04-18T03:47:02.637Z,51.212063
2023-04-18T03:48:02.665Z,51.212074
2023-04-18T03:49:02.622Z,51.212128
2023-04-18T03:50:02.615Z,51.212112
2023-04-18T03:51:02.608Z,51.212090
2023-04-18T03:52:02.592Z,51.212013
2023-04-18T03:53:02.700Z,51.212097
2023-04-18T03:54:02.613Z,51.212234
2023-04-18T03:55:02.569Z,51.212101
2023-04-18T03:56:02.573Z,51.212116
2023-04-18T03:57:02.563Z,51.212093
2023-04-18T03:58:02.587Z,51.212044
2023-04-18T03:59:02.579Z,51.211960
2023-04-18T04:00:02.632Z,51.212059
2023-04-18T04:01:02.550Z,51.212105
2023-04-18T04:02:02.608Z,51.212147
2023-04-18T04:03:02.645Z,51.212238
2023-04-18T04:04:02.647Z,51.212269
2023-04-18T04:05:02.728Z,51.212177
2023-04-18T04:06:02.518Z,51.212162
2023-04-18T04:07:02.519Z,51.212128
2023-04-18T04:08:02.540Z,51.212013
2023-04-18T04:09:02.522Z,51.212090
2023-04-18T04:10:02.496Z,51.212257
2023-04-18T04:11:02.495Z,51.212013
2023-04-18T04:12:02.510Z,51.212040
2023-04-18T04:13:02.524Z,51.212017
2023-04-18T04:14:02.490Z,51.212025
2023-04-18T04:15:02.458Z,51.212132
2023-04-18T04:16:02.498Z,51.212116
2023-04-18T04:17:02.494Z,51.211979
2023-04-18T04:18:02.556Z,51.212193
2023-04-18T04:19:02.482Z,51.212326
2023-04-18T04:20:02.485Z,51.212212
2023-04-18T04:21:02.448Z,51.212288
2023-04-18T04:22:02.424Z,51.212143
2023-04-18T04:23:02.419Z,51.211872
2023-04-18T04:24:02.468Z,51.212116
2023-04-18T04:25:02.395Z,51.212112
2023-04-18T04:26:02.432Z,51.212269
2023-04-18T04:27:02.407Z,51.212234
2023-04-18T04:28:02.430Z,51.212120
2023-04-18T04:29:02.397Z,51.212059
2023-04-18T04:30:02.362Z,51.212151
2023-04-18T04:31:02.355Z,51.212257
2023-04-18T04:32:02.481Z,51.212250
2023-04-18T04:33:02.377Z,51.212227
2023-04-18T04:34:02.380Z,51.212261
2023-04-18T04:35:02.347Z,51.212299
2023-04-18T04:36:02.306Z,51.212315
2023-04-18T04:37:02.330Z,51.212276
2023-04-18T04:38:02.370Z,51.212276
2023-04-18T04:39:02.308Z,51.212170
2023-04-18T04:40:02.302Z,51.212257
2023-04-18T04:41:02.292Z,51.212208
2023-04-18T04:42:02.393Z,51.212238
2023-04-18T04:43:02.280Z,51.212170
2023-04-18T04:44:02.273Z,51.212105
2023-04-18T04:45:02.349Z,51.212101
2023-04-18T04:46:02.356Z,51.212208
2023-04-18T04:47:02.293Z,51.212040
2023-04-18T04:48:02.306Z,51.212162
2023-04-18T04:49:02.250Z,51.212032
2023-04-18T04:50:02.252Z,51.211979
2023-04-18T04:51:02.267Z,51.212025
2023-04-18T04:52:02.303Z,51.212173
2023-04-18T04:53:02.236Z,51.211922
2023-04-18T04:54:02.253Z,51.212246
2023-04-18T04:55:02.232Z,51.212353
2023-04-18T04:56:02.249Z,51.212040
2023-04-18T04:57:02.228Z,51.211933
2023-04-18T04:58:02.248Z,51.211967
2023-04-18T04:59:02.258Z,51.212048
2023-04-18T05:00:02.189Z,51.211990
2023-04-18T05:01:02.235Z,51.212219
2023-04-18T05:02:02.315Z,51.212307
2023-04-18T05:03:02.364Z,51.212185
2023-04-18T05:04:02.369Z,51.212135
2023-04-18T05:05:02.160Z,51.212055
2023-04-18T05:06:02.163Z,51.212151
2023-04-18T05:07:02.155Z,51.212162
2023-04-18T05:08:02.185Z,51.212135
2023-04-18T05:09:02.139Z,51.212048
2023-04-18T05:10:02.134Z,51.212101
2023-04-18T05:11:02.117Z,51.211994
2023-04-18T05:12:02.167Z,51.212036
2023-04-18T05:13:02.116Z,51.212143
2023-04-18T05:14:02.143Z,51.212124
2023-04-18T05:15:02.116Z,51.212181
2023-04-18T05:16:02.096Z,51.212048
2023-04-18T05:17:02.279Z,51.212070
2023-04-18T05:18:02.184Z,51.212170
2023-04-18T05:19:02.188Z,51.212124
2023-04-18T05:20:02.173Z,51.212219
2023-04-18T05:21:02.056Z,51.211945
2023-04-18T05:22:02.081Z,51.212044
2023-04-18T05:23:02.082Z,51.212173
2023-04-18T05:24:02.046Z,51.212154
2023-04-18T05:25:02.035Z,51.212135
2023-04-18T05:26:02.065Z,51.212166
2023-04-18T05:27:02.036Z,51.212177
2023-04-18T05:28:02.019Z,51.212151
2023-04-18T05:29:02.106Z,51.212158
2023-04-18T05:30:02.033Z,51.212162
2023-04-18T05:31:02.164Z,51.212212
2023-04-18T05:32:02.028Z,51.212166
2023-04-18T05:33:02.051Z,51.212067
2023-04-18T05:34:02.062Z,51.212139
2023-04-18T05:35:01.999Z,51.212189
2023-04-18T05:36:02.003Z,51.212269
2023-04-18T05:37:02.017Z,51.212311
2023-04-18T05:38:02.008Z,51.212311
2023-04-18T05:39:01.955Z,51.212391
2023-04-18T05:40:01.972Z,51.212158
2023-04-18T05:41:01.970Z,51.212151
2023-04-18T05:42:01.970Z,51.212093
2023-04-18T05:43:01.921Z,51.212154
2023-04-18T05:44:05.408Z,51.212170
2023-04-18T05:45:02.940Z,51.212044
2023-04-18T05:46:01.994Z,51.212189
2023-04-18T05:47:01.917Z,51.212128
2023-04-18T05:48:02.038Z,51.212120
2023-04-18T05:49:01.913Z,51.212078
2023-04-18T05:50:02.011Z,51.212116
2023-04-18T05:51:01.927Z,51.212166
2023-04-18T05:52:01.954Z,51.212204
2023-04-18T05:53:01.940Z,51.212181
2023-04-18T05:54:01.916Z,51.212093
2023-04-18T05:55:01.934Z,51.212120
2023-04-18T05:56:01.881Z,51.212093
2023-04-18T05:57:04.245Z,51.212193
2023-04-18T05:58:01.868Z,51.212231
2023-04-18T05:59:01.888Z,51.212193
2023-04-18T06:00:02.063Z,51.212128
2023-04-18T06:01:01.842Z,51.212067
2023-04-18T06:02:01.849Z,51.212048
2023-04-18T06:03:02.162Z,51.212135
2023-04-18T06:04:01.964Z,51.212189
2023-04-18T06:05:01.909Z,51.212246
2023-04-18T06:06:02.118Z,51.212246
2023-04-18T06:07:02.765Z,51.212196
2023-04-18T06:08:01.761Z,51.212154
2023-04-18T06:09:01.780Z,51.212139
2023-04-18T06:10:01.883Z,51.212151
2023-04-18T06:11:01.798Z,51.212139
2023-04-18T06:12:01.758Z,51.212082
2023-04-18T06:13:01.792Z,51.212036
2023-04-18T06:14:01.743Z,51.212013
2023-04-18T06:15:01.837Z,51.212147
2023-04-18T06:16:01.828Z,51.212227
2023-04-18T06:17:01.832Z,51.212227
2023-04-18T06:18:01.788Z,51.212158
2023-04-18T06:19:01.748Z,51.211994
2023-04-18T06:20:01.707Z,51.212185
2023-04-18T06:21:01.701Z,51.212238
2023-04-18T06:22:01.701Z,51.212143
2023-04-18T06:23:01.697Z,51.212151
2023-04-18T06:24:01.737Z,51.212109
2023-04-18T06:25:01.709Z,51.212086
2023-04-18T06:26:01.667Z,51.212193
2023-04-18T06:27:01.767Z,51.212105
2023-04-18T06:28:01.710Z,51.212154
2023-04-18T06:29:01.644Z,51.212185
2023-04-18T06:30:01.645Z,51.212067
2023-04-18T06:31:01.622Z,51.212086
2023-04-18T06:32:01.729Z,51.212219
2023-04-18T06:33:01.666Z,51.212101
2023-04-18T06:34:01.659Z,51.212185
2023-04-18T06:35:01.606Z,51.212044
2023-04-18T06:36:01.618Z,51.212128
2023-04-18T06:37:01.685Z,51.212112
2023-04-18T06:38:01.628Z,51.212135
2023-04-18T06:39:01.609Z,51.212158
2023-04-18T06:40:01.603Z,51.212185
2023-04-18T06:41:01.563Z,51.212120
2023-04-18T06:42:01.573Z,51.212048
2023-04-18T06:43:01.573Z,51.211994
2023-04-18T06:44:03.568Z,51.212013
2023-04-18T06:45:02.581Z,51.212025
2023-04-18T06:46:01.685Z,51.212025
2023-04-18T06:47:01.638Z,51.212227
2023-04-18T06:48:01.567Z,51.212353
2023-04-18T06:49:01.557Z,51.212231
2023-04-18T06:50:01.530Z,51.212215
2023-04-18T06:51:01.536Z,51.212109
2023-04-18T06:52:01.559Z,51.211967
2023-04-18T06:53:01.534Z,51.212017
2023-04-18T06:54:01.544Z,51.212006
2023-04-18T06:55:01.517Z,51.212055
2023-04-18T06:56:01.547Z,51.211994
2023-04-18T06:57:01.549Z,51.212021
2023-04-18T06:58:01.553Z,51.211987
2023-04-18T06:59:01.521Z,51.212074
2023-04-18T07:00:01.516Z,51.212048
2023-04-18T07:01:01.543Z,51.211918
2023-04-18T07:02:01.454Z,51.211834
2023-04-18T07:03:01.584Z,51.211983
2023-04-18T07:04:01.545Z,51.212082
2023-04-18T07:05:01.539Z,51.212181
2023-04-18T07:06:01.465Z,51.212097
2023-04-18T07:07:01.429Z,51.212101
2023-04-18T07:08:01.428Z,51.212063
2023-04-18T07:09:01.394Z,51.212074
2023-04-18T07:10:02.510Z,51.211967
2023-04-18T07:11:01.408Z,51.212082
2023-04-18T07:12:01.389Z,51.212143
2023-04-18T07:13:01.370Z,51.212135
2023-04-18T07:14:01.471Z,51.212158
2023-04-18T07:15:01.348Z,51.212101
2023-04-18T07:16:01.372Z,51.212051
2023-04-18T07:17:01.380Z,51.211979
2023-04-18T07:18:01.432Z,51.212154
2023-04-18T07:19:01.362Z,51.211979
2023-04-18T07:20:01.394Z,51.212074
2023-04-18T07:21:01.380Z,51.212112
2023-04-18T07:22:01.331Z,51.212158
2023-04-18T07:23:01.322Z,51.211975
2023-04-18T07:24:01.807Z,51.212135
2023-04-18T07:25:01.369Z,51.212215
2023-04-18T07:26:01.302Z,51.212208
2023-04-18T07:27:01.356Z,51.212219
2023-04-18T07:28:01.319Z,51.212193
2023-04-18T07:29:01.275Z,51.212200
2023-04-18T07:30:01.294Z,51.212177
2023-04-18T07:31:01.525Z,51.212173
2023-04-18T07:32:01.272Z,51.212204
2023-04-18T07:33:01.286Z,51.212254
2023-04-18T07:34:01.344Z,51.212219
2023-04-18T07:35:01.317Z,51.212261
2023-04-18T07:36:01.318Z,51.212128
2023-04-18T07:37:02.276Z,51.212158
2023-04-18T07:38:01.237Z,51.212196
2023-04-18T07:39:01.266Z,51.212162
2023-04-18T07:40:01.232Z,51.212185
2023-04-18T07:41:01.239Z,51.212158
2023-04-18T07:42:01.330Z,51.212292
2023-04-18T07:43:01.256Z,51.212139
2023-04-18T07:44:01.302Z,51.212257
2023-04-18T07:45:01.204Z,51.212070
2023-04-18T07:46:01.269Z,51.212055
2023-04-18T07:47:01.239Z,51.212120
2023-04-18T07:48:01.197Z,51.212166
2023-04-18T07:49:01.179Z,51.212315
2023-04-18T07:50:01.184Z,51.212200
2023-04-18T07:51:01.197Z,51.212196
2023-04-18T07:52:01.258Z,51.212257
2023-04-18T07:53:01.182Z,51.212173
2023-04-18T07:54:01.174Z,51.212063
2023-04-18T07:55:01.124Z,51.212067
2023-04-18T07:56:01.126Z,51.212151
2023-04-18T07:57:01.102Z,51.212185
2023-04-18T07:58:01.256Z,51.212234
2023-04-18T07:59:01.089Z,51.212090
2023-04-18T08:00:01.101Z,51.212151
2023-04-18T08:01:01.085Z,51.212185
2023-04-18T08:02:01.133Z,51.212177
2023-04-18T08:03:01.261Z,51.212215
2023-04-18T08:04:01.161Z,51.212276
2023-04-18T08:05:01.184Z,51.212254
2023-04-18T08:06:01.079Z,51.212299
2023-04-18T08:07:01.097Z,51.212227
2023-04-18T08:08:01.029Z,51.212189
2023-04-18T08:09:01.033Z,51.212337
2023-04-18T08:10:01.055Z,51.212093
2023-04-18T08:11:01.019Z,51.212185
2023-04-18T08:12:01.029Z,51.212242
2023-04-18T08:13:01.041Z,51.212181
2023-04-18T08:14:01.028Z,51.212231
2023-04-18T08:15:01.029Z,51.212238
2023-04-18T08:16:01.039Z,51.212265
2023-04-18T08:17:00.990Z,51.212246
2023-04-18T08:18:01.059Z,51.212250
2023-04-18T08:19:00.963Z,51.212097
2023-04-18T08:20:00.994Z,51.212067
2023-04-18T08:21:00.972Z,51.212105
2023-04-18T08:22:00.944Z,51.212185
2023-04-18T08:23:07.533Z,51.212173
2023-04-18T08:24:02.944Z,51.212162
2023-04-18T08:25:04.914Z,51.212151
2023-04-18T08:26:01.972Z,51.212154
2023-04-18T08:27:00.927Z,51.212196
2023-04-18T08:28:00.929Z,51.212227
2023-04-18T08:29:00.935Z,51.212185
2023-04-18T08:30:00.959Z,51.212219
2023-04-18T08:31:01.101Z,51.212234
2023-04-18T08:32:00.982Z,51.212105
2023-04-18T08:33:00.993Z,51.212112
2023-04-18T08:34:02.152Z,51.211845
2023-04-18T08:35:00.918Z,51.212166
2023-04-18T08:36:00.922Z,51.212120
2023-04-18T08:37:00.916Z,51.212055
2023-04-18T08:38:00.874Z,51.212154
2023-04-18T08:39:00.866Z,51.212128
2023-04-18T08:40:00.850Z,51.212170
2023-04-18T08:41:00.908Z,51.212135
2023-04-18T08:42:00.840Z,51.212147
2023-04-18T08:43:00.831Z,51.212124
2023-04-18T08:44:01.012Z,51.212135
2023-04-18T08:45:00.814Z,51.212105
2023-04-18T08:46:00.953Z,51.212105
2023-04-18T08:47:00.833Z,51.212086
2023-04-18T08:48:00.816Z,51.212040
2023-04-18T08:49:00.901Z,51.211971
2023-04-18T08:50:00.890Z,51.212017
2023-04-18T08:51:00.815Z,51.212170
2023-04-18T08:52:00.757Z,51.212139
2023-04-18T08:53:00.805Z,51.212132
2023-04-18T08:54:00.737Z,51.212105
2023-04-18T08:55:00.799Z,51.211952
2023-04-18T08:56:00.739Z,51.212090
2023-04-18T08:57:00.736Z,51.212101
2023-04-18T08:58:00.715Z,51.212132
2023-04-18T08:59:00.711Z,51.212086
2023-04-18T09:00:00.752Z,51.212116
2023-04-18T09:01:00.829Z,51.212143
2023-04-18T09:02:00.994Z,51.212158
2023-04-18T09:03:00.923Z,51.212143
2023-04-18T09:04:00.765Z,51.212139
2023-04-18T09:05:00.686Z,51.212021
2023-04-18T09:06:00.703Z,51.212055
2023-04-18T09:07:00.667Z,51.212105
2023-04-18T09:08:00.691Z,51.212067
2023-04-18T09:09:00.695Z,51.212082
2023-04-18T09:10:00.689Z,51.212013
2023-04-18T09:11:00.705Z,51.212177
2023-04-18T09:12:00.642Z,51.212112
2023-04-18T09:13:00.998Z,51.212196
2023-04-18T09:14:00.611Z,51.212242
2023-04-18T09:15:00.629Z,51.212101
2023-04-18T09:16:00.640Z,51.212036
2023-04-18T09:17:00.700Z,51.211971
2023-04-18T09:18:00.669Z,51.211929
2023-04-18T09:19:00.601Z,51.211960
2023-04-18T09:20:00.670Z,51.212078
2023-04-18T09:21:00.576Z,51.212063
2023-04-18T09:22:00.594Z,51.211998
2023-04-18T09:23:00.791Z,51.211880
2023-04-18T09:24:00.568Z,51.211868
2023-04-18T09:25:00.555Z,51.211926
2023-04-18T09:26:00.538Z,51.212040
2023-04-18T09:27:00.542Z,51.211990
2023-04-18T09:28:06.833Z,51.212009
2023-04-18T09:29:00.531Z,51.211956
2023-04-18T09:30:00.531Z,51.211948
2023-04-18T09:31:00.547Z,51.211998
2023-04-18T09:32:00.496Z,51.212036
2023-04-18T09:33:00.558Z,51.211941
2023-04-18T09:34:00.723Z,51.211937
2023-04-18T09:35:02.014Z,51.211933
2023-04-18T09:36:00.524Z,51.212013
2023-04-18T09:37:00.548Z,51.212017
2023-04-18T09:38:00.526Z,51.211899
2023-04-18T09:39:00.546Z,51.211964
2023-04-18T09:40:00.460Z,51.212105
2023-04-18T09:41:00.461Z,51.212067
2023-04-18T09:42:00.454Z,51.211941
2023-04-18T09:43:00.434Z,51.211994
2023-04-18T09:44:00.440Z,51.212143
2023-04-18T09:45:00.460Z,51.211979
2023-04-18T09:46:00.553Z,51.211891
2023-04-18T09:47:00.420Z,51.212128
2023-04-18T09:48:00.462Z,51.211887
2023-04-18T09:49:00.390Z,51.212177
2023-04-18T09:50:00.404Z,51.211346
2023-04-18T09:51:00.408Z,51.211510
2023-04-18T09:52:02.271Z,51.212116
2023-04-18T09:53:00.381Z,51.211868
2023-04-18T09:54:01.360Z,51.211754
2023-04-18T09:55:01.206Z,51.212029
2023-04-18T09:56:00.483Z,51.212032
2023-04-18T09:57:00.363Z,51.212173
2023-04-18T09:58:00.387Z,51.212166
2023-04-18T09:59:00.348Z,51.212173
2023-04-18T10:00:00.366Z,51.212151
2023-04-18T10:01:01.167Z,51.212139
2023-04-18T10:02:00.367Z,51.211998
2023-04-18T10:03:00.437Z,51.212105
2023-04-18T10:04:01.373Z,51.212059
2023-04-18T10:05:00.438Z,51.212109
2023-04-18T10:06:00.307Z,51.212204
2023-04-18T10:07:00.297Z,51.211983
2023-04-18T10:08:00.283Z,51.211929
2023-04-18T10:09:00.293Z,51.211819
2023-04-18T10:10:00.295Z,51.212025
2023-04-18T10:11:00.242Z,51.211998
2023-04-18T10:12:00.246Z,51.211929
2023-04-18T10:13:00.256Z,51.212006
2023-04-18T10:14:00.215Z,51.212059
2023-04-18T10:15:00.312Z,51.212055
2023-04-18T10:16:00.287Z,51.212074
2023-04-18T10:17:00.224Z,51.212132
2023-04-18T10:18:05.266Z,51.212036
2023-04-18T10:19:02.199Z,51.212032
2023-04-18T10:20:00.193Z,51.212032
2023-04-18T10:21:00.246Z,51.212044
2023-04-18T10:22:00.212Z,51.211994
2023-04-18T10:23:00.163Z,51.211861
2023-04-18T10:24:00.211Z,51.211784
2023-04-18T10:25:00.235Z,51.211872
2023-04-18T10:26:00.192Z,51.212021
2023-04-18T10:27:00.164Z,51.212067
2023-04-18T10:28:00.167Z,51.211929
2023-04-18T10:29:00.529Z,51.211876
2023-04-18T10:30:00.157Z,51.211971
2023-04-18T10:31:00.208Z,51.211998
2023-04-18T10:32:00.198Z,51.212078
2023-04-18T10:33:00.192Z,51.212101
2023-04-18T10:34:05.291Z,51.212158
2023-04-18T10:35:02.766Z,51.212151
2023-04-18T10:36:00.175Z,51.212154
2023-04-18T10:37:00.157Z,51.212059
2023-04-18T10:38:00.125Z,51.211975
2023-04-18T10:39:00.101Z,51.212135
2023-04-18T10:40:00.117Z,51.212254
2023-04-18T10:41:00.088Z,51.212120
2023-04-18T10:42:00.128Z,51.212135
2023-04-18T10:43:00.057Z,51.212234
2023-04-18T10:44:00.039Z,51.212185
2023-04-18T10:45:00.062Z,51.212055
2023-04-18T10:46:00.040Z,51.212101
2023-04-18T10:47:00.082Z,51.212208
2023-04-18T10:48:00.036Z,51.212193
2023-04-18T10:49:00.940Z,51.212200
2023-04-18T10:49:59.998Z,51.212234
2023-04-18T10:51:00.000Z,51.212364
2023-04-18T10:51:59.977Z,51.212082
2023-04-18T10:52:59.990Z,51.212105
2023-04-18T10:53:59.942Z,51.212284
2023-04-18T10:54:59.966Z,51.212257
2023-04-18T10:55:59.955Z,51.212357
2023-04-18T10:57:00.015Z,51.212288
2023-04-18T10:57:59.942Z,51.212379
2023-04-18T10:58:59.932Z,51.212387
2023-04-18T10:59:59.916Z,51.212311
2023-04-18T11:00:59.992Z,51.212227
2023-04-18T11:02:00.026Z,51.212334
2023-04-18T11:03:00.152Z,51.212315
2023-04-18T11:04:00.185Z,51.212215
2023-04-18T11:04:59.979Z,51.212269
2023-04-18T11:05:59.892Z,51.212296
2023-04-18T11:06:59.876Z,51.212299
2023-04-18T11:07:59.916Z,51.212269
2023-04-18T11:08:59.937Z,51.212234
2023-04-18T11:09:59.900Z,51.212284
2023-04-18T11:10:59.847Z,51.212257
2023-04-18T11:11:59.843Z,51.212257
2023-04-18T11:12:59.849Z,51.212261
2023-04-18T11:13:59.829Z,51.212322
2023-04-18T11:14:59.888Z,51.212322
2023-04-18T11:15:59.830Z,51.212395
2023-04-18T11:16:59.946Z,51.212322
2023-04-18T11:17:59.849Z,51.212284
2023-04-18T11:18:59.806Z,51.212265
2023-04-18T11:19:59.810Z,51.212246
2023-04-18T11:20:59.790Z,51.212158
2023-04-18T11:21:59.846Z,51.212196
2023-04-18T11:22:59.803Z,51.212154
2023-04-18T11:23:59.789Z,51.212177